createdAt,value
2017-12-02T00:01:30.662Z,31.30
2017-12-02T00:03:58.223Z,31.20
2017-12-02T00:06:25.666Z,31.08
2017-12-02T00:08:53.106Z,31.10
2017-12-02T00:11:20.667Z,31.35
2017-12-02T00:13:48.098Z,32.00
2017-12-02T00:16:15.552Z,30.62
2017-12-02T00:18:43.846Z,32.47
2017-12-02T00:21:11.300Z,32.25
2017-12-02T00:23:38.750Z,31.48
2017-12-02T00:26:06.289Z,32.50
2017-12-02T00:28:34.507Z,32.10
2017-12-02T00:31:01.935Z,33.40
2017-12-02T00:33:29.422Z,32.80
2017-12-02T00:35:56.870Z,32.83
2017-12-02T00:38:24.336Z,32.50
2017-12-02T00:40:51.780Z,33.70
2017-12-02T00:43:19.223Z,31.80
2017-12-02T00:45:46.667Z,32.30
2017-12-02T00:48:14.104Z,30.58
2017-12-02T00:50:41.630Z,33.17
2017-12-02T00:53:09.101Z,31.00
2017-12-02T00:55:36.534Z,31.40
2017-12-02T00:58:03.999Z,30.85
2017-12-02T01:00:31.459Z,28.92
2017-12-02T01:02:58.902Z,29.87
2017-12-02T01:05:26.351Z,29.52
2017-12-02T01:07:53.827Z,28.73
2017-12-02T01:10:21.290Z,30.55
2017-12-02T01:12:48.750Z,28.55
2017-12-02T01:15:16.211Z,28.92
2017-12-02T01:17:44.478Z,28.85
2017-12-02T01:20:12.014Z,27.02
2017-12-02T01:22:39.573Z,26.62
2017-12-02T01:25:07.010Z,25.12
2017-12-02T01:27:34.491Z,25.80
2017-12-02T01:30:01.958Z,26.42
2017-12-02T01:32:29.411Z,24.65
2017-12-02T01:34:57.717Z,26.10
2017-12-02T01:37:26.660Z,25.33
2017-12-02T01:39:54.147Z,24.63
2017-12-02T01:42:21.585Z,24.87
2017-12-02T01:44:49.041Z,24.58
2017-12-02T01:47:16.478Z,24.70
2017-12-02T01:49:43.932Z,24.75
2017-12-02T01:52:11.415Z,26.00
2017-12-02T01:54:38.834Z,23.50
2017-12-02T01:57:06.271Z,24.33
2017-12-02T01:59:34.626Z,24.93
2017-12-02T02:02:02.282Z,24.35
2017-12-02T02:04:29.733Z,25.30
2017-12-02T02:06:57.186Z,24.50
2017-12-02T02:09:24.633Z,24.58
2017-12-02T02:11:52.082Z,26.23
2017-12-02T02:14:19.575Z,25.08
2017-12-02T02:16:47.046Z,26.77
2017-12-02T02:19:15.238Z,28.12
2017-12-02T02:21:42.762Z,27.33
2017-12-02T02:24:10.199Z,29.20
2017-12-02T02:26:37.667Z,30.62
2017-12-02T02:29:05.234Z,30.45
2017-12-02T02:31:32.853Z,30.62
2017-12-02T02:34:00.346Z,30.55
2017-12-02T02:36:27.802Z,30.52
2017-12-02T02:38:55.362Z,30.15
2017-12-02T02:41:22.819Z,31.95
2017-12-02T02:43:50.260Z,32.30
2017-12-02T02:46:17.690Z,34.28
2017-12-02T02:48:45.127Z,32.92
2017-12-02T02:51:13.336Z,35.08
2017-12-02T02:53:40.790Z,33.13
2017-12-02T02:56:08.283Z,34.28
2017-12-02T02:58:35.719Z,35.00
2017-12-02T03:01:03.198Z,34.28
2017-12-02T03:03:30.653Z,33.10
2017-12-02T03:05:58.112Z,36.03
2017-12-02T03:08:25.680Z,34.13
2017-12-02T03:10:53.111Z,34.17
2017-12-02T03:13:20.550Z,34.05
2017-12-02T03:15:48.030Z,32.50
2017-12-02T03:18:15.508Z,32.55
2017-12-02T03:20:43.067Z,30.07
2017-12-02T03:23:10.624Z,33.55
2017-12-02T03:25:38.166Z,31.17
2017-12-02T03:28:05.633Z,31.30
2017-12-02T03:30:33.098Z,29.95
2017-12-02T03:33:00.522Z,30.85
2017-12-02T03:35:27.962Z,30.52
2017-12-02T03:37:55.401Z,31.08
2017-12-02T03:40:22.847Z,29.70
2017-12-02T03:42:51.050Z,29.42
2017-12-02T03:45:18.492Z,27.52
2017-12-02T03:47:46.000Z,26.90
2017-12-02T03:50:13.475Z,26.87
2017-12-02T03:52:40.912Z,26.27
2017-12-02T03:55:08.351Z,26.52
2017-12-02T03:57:35.794Z,27.30
2017-12-02T04:00:03.245Z,25.23
2017-12-02T04:02:30.682Z,25.00
2017-12-02T04:04:58.125Z,24.37
2017-12-02T04:07:26.350Z,24.37
2017-12-02T04:09:53.796Z,23.83
2017-12-02T04:12:21.238Z,23.05
2017-12-02T04:14:48.687Z,23.17
2017-12-02T04:17:16.159Z,22.67
2017-12-02T04:19:43.599Z,22.92
2017-12-02T04:22:11.058Z,22.67
2017-12-02T04:24:38.546Z,22.85
2017-12-02T04:27:05.986Z,23.08
2017-12-02T04:29:33.439Z,22.35
2017-12-02T04:32:00.890Z,23.10
2017-12-02T04:34:28.362Z,24.02
2017-12-02T04:36:55.794Z,22.10
2017-12-02T04:39:23.243Z,22.85
2017-12-02T04:41:50.685Z,22.48
2017-12-02T04:44:18.185Z,22.65
2017-12-02T04:46:45.645Z,23.50
2017-12-02T04:49:13.093Z,23.92
2017-12-02T04:51:40.559Z,23.10
2017-12-02T04:54:07.999Z,23.30
2017-12-02T04:56:35.557Z,23.57
2017-12-02T04:59:02.989Z,24.75
2017-12-02T05:01:30.503Z,24.52
2017-12-02T05:03:57.960Z,24.63
2017-12-02T05:06:25.398Z,26.05
2017-12-02T05:08:52.865Z,28.20
2017-12-02T05:11:20.314Z,28.02
2017-12-02T05:13:47.762Z,26.85
2017-12-02T05:16:15.206Z,27.35
2017-12-02T05:18:42.662Z,27.65
2017-12-02T05:21:10.140Z,27.50
2017-12-02T05:23:37.593Z,25.20
2017-12-02T05:26:05.043Z,27.40
2017-12-02T05:28:32.479Z,26.50
2017-12-02T05:30:59.966Z,26.35
2017-12-02T05:33:27.414Z,26.75
2017-12-02T05:35:54.866Z,26.30
2017-12-02T05:38:22.350Z,26.87
2017-12-02T05:40:49.792Z,27.40
2017-12-02T05:43:17.226Z,26.20
2017-12-02T05:45:44.710Z,25.50
2017-12-02T05:48:12.162Z,26.02
2017-12-02T05:50:39.747Z,25.88
2017-12-02T05:53:07.178Z,26.50
2017-12-02T05:55:34.637Z,27.00
2017-12-02T05:58:02.091Z,27.63
2017-12-02T06:00:29.530Z,26.73
2017-12-02T06:02:57.004Z,26.10
2017-12-02T06:05:24.442Z,25.98
2017-12-02T06:07:51.907Z,25.67
2017-12-02T06:10:19.357Z,26.20
2017-12-02T06:12:46.838Z,24.90
2017-12-02T06:15:14.294Z,26.83
2017-12-02T06:17:41.746Z,26.15
2017-12-02T06:20:10.139Z,25.30
2017-12-02T06:22:37.795Z,25.37
2017-12-02T06:25:05.353Z,23.87
2017-12-02T06:27:32.908Z,24.58
2017-12-02T06:30:00.361Z,24.42
2017-12-02T06:32:27.804Z,23.38
2017-12-02T06:34:55.243Z,23.95
2017-12-02T06:37:22.692Z,25.20
2017-12-02T06:39:50.114Z,24.13
2017-12-02T06:42:18.322Z,23.47
2017-12-02T06:44:45.817Z,23.62
2017-12-02T06:47:13.246Z,23.55
2017-12-02T06:49:40.728Z,25.23
2017-12-02T06:52:08.170Z,25.20
2017-12-02T06:54:35.609Z,24.23
2017-12-02T06:57:03.087Z,25.03
2017-12-02T06:59:30.558Z,24.08
2017-12-02T07:01:58.000Z,23.10
2017-12-02T07:04:25.446Z,24.95
2017-12-02T07:06:52.893Z,25.40
2017-12-02T07:09:20.351Z,22.85
2017-12-02T07:11:47.818Z,26.12
2017-12-02T07:14:15.263Z,26.75
2017-12-02T07:16:42.714Z,26.30
2017-12-02T07:19:10.161Z,24.90
2017-12-02T07:21:37.593Z,28.10
2017-12-02T07:24:05.803Z,27.45
2017-12-02T07:26:33.254Z,28.00
2017-12-02T07:29:00.710Z,27.35
2017-12-02T07:31:28.165Z,27.42
2017-12-02T07:33:55.652Z,26.87
2017-12-02T07:36:23.090Z,27.00
2017-12-02T07:38:50.535Z,27.62
2017-12-02T07:41:17.981Z,26.40
2017-12-02T07:43:45.438Z,26.75
2017-12-02T07:46:13.643Z,26.00
2017-12-02T07:48:41.112Z,25.20
2017-12-02T07:51:08.563Z,25.75
2017-12-02T07:53:35.998Z,24.77
2017-12-02T07:56:03.459Z,25.10
2017-12-02T07:58:30.900Z,27.20
2017-12-02T08:00:58.398Z,26.05
2017-12-02T08:03:25.842Z,24.77
2017-12-02T08:05:53.281Z,26.30
2017-12-02T08:08:20.758Z,25.87
2017-12-02T08:10:48.235Z,25.85
2017-12-02T08:13:15.678Z,26.23
2017-12-02T08:15:43.149Z,26.00
2017-12-02T08:18:10.590Z,24.75
2017-12-02T08:20:38.045Z,25.20
2017-12-02T08:23:05.478Z,25.12
2017-12-02T08:25:32.925Z,25.27
2017-12-02T08:28:00.380Z,25.42
2017-12-02T08:30:27.806Z,26.23
2017-12-02T08:32:56.046Z,26.33
2017-12-02T08:35:23.606Z,24.60
2017-12-02T08:37:51.065Z,25.90
2017-12-02T08:40:18.513Z,24.45
2017-12-02T08:42:45.974Z,24.27
2017-12-02T08:45:13.422Z,24.37
2017-12-02T08:47:40.882Z,23.65
2017-12-02T08:50:08.730Z,24.40
2017-12-02T08:52:36.190Z,24.95
2017-12-02T08:55:03.744Z,24.27
2017-12-02T08:57:31.190Z,24.75
2017-12-02T08:59:58.701Z,23.42
2017-12-02T09:02:26.138Z,25.52
2017-12-02T09:04:53.590Z,25.98
2017-12-02T09:07:21.054Z,24.87
2017-12-02T09:09:48.510Z,26.62
2017-12-02T09:12:15.970Z,28.25
2017-12-02T09:14:43.438Z,26.80
2017-12-02T09:17:10.884Z,27.20
2017-12-02T09:19:38.476Z,27.08
2017-12-02T09:22:05.908Z,29.70
2017-12-02T09:24:34.283Z,30.33
2017-12-02T09:27:03.339Z,30.90
2017-12-02T09:29:30.754Z,30.23
2017-12-02T09:31:58.956Z,30.95
2017-12-02T09:34:26.389Z,31.87
2017-12-02T09:36:54.603Z,31.33
2017-12-02T09:39:22.554Z,30.50
2017-12-02T09:41:50.049Z,33.70
2017-12-02T09:44:17.484Z,30.07
2017-12-02T09:46:44.902Z,27.93
2017-12-02T09:49:13.253Z,28.73
2017-12-02T09:51:40.698Z,28.03
2017-12-02T09:54:08.140Z,30.43
2017-12-02T09:56:36.432Z,28.40
2017-12-02T09:59:03.900Z,28.33
2017-12-02T10:01:31.380Z,28.43
2017-12-02T10:03:59.630Z,28.10
2017-12-02T10:06:27.041Z,27.40
2017-12-02T10:08:54.540Z,28.20
2017-12-02T10:11:22.108Z,27.83
2017-12-02T10:13:49.764Z,28.35
2017-12-02T10:16:17.425Z,26.90
2017-12-02T10:18:44.962Z,28.83
2017-12-02T10:21:12.471Z,29.55
2017-12-02T10:23:40.662Z,28.83
2017-12-02T10:26:08.098Z,28.35
2017-12-02T10:28:36.302Z,27.85
2017-12-02T10:31:03.747Z,27.15
2017-12-02T10:33:31.198Z,28.25
2017-12-02T10:35:58.671Z,27.95
2017-12-02T10:38:26.094Z,28.45
2017-12-02T10:40:54.526Z,28.05
2017-12-02T10:43:21.964Z,27.40
2017-12-02T10:45:49.457Z,27.92
2017-12-02T10:48:16.916Z,27.87
2017-12-02T10:50:44.450Z,30.60
2017-12-02T10:53:11.883Z,27.95
2017-12-02T10:55:39.327Z,27.52
2017-12-02T10:58:06.767Z,27.30
2017-12-02T11:00:34.985Z,28.50
2017-12-02T11:03:02.418Z,32.42
2017-12-02T11:05:29.874Z,32.13
2017-12-02T11:07:57.548Z,27.83
2017-12-02T11:10:24.974Z,28.05
2017-12-02T11:12:53.302Z,26.85
2017-12-02T11:15:21.019Z,28.08
2017-12-02T11:17:49.238Z,26.58
2017-12-02T11:20:16.695Z,28.90
2017-12-02T11:22:44.130Z,30.73
2017-12-02T11:25:11.567Z,27.30
2017-12-02T11:27:39.016Z,26.23
2017-12-02T11:30:07.248Z,25.65
2017-12-02T11:32:34.771Z,26.85
2017-12-02T11:35:02.248Z,25.75
2017-12-02T11:37:29.690Z,25.20
2017-12-02T11:39:57.127Z,25.90
2017-12-02T11:42:24.587Z,26.35
2017-12-02T11:44:52.079Z,27.05
2017-12-02T11:47:19.520Z,24.37
2017-12-02T11:49:46.960Z,25.37
2017-12-02T11:52:14.397Z,23.30
2017-12-02T11:54:41.994Z,24.95
2017-12-02T11:57:09.514Z,23.75
2017-12-02T11:59:37.730Z,23.38
2017-12-02T12:02:05.272Z,24.17
2017-12-02T12:04:32.694Z,24.95
2017-12-02T12:07:00.931Z,24.80
2017-12-02T12:09:28.582Z,23.60
2017-12-02T12:11:56.050Z,25.80
2017-12-02T12:14:23.499Z,23.77
2017-12-02T12:16:50.941Z,26.50
2017-12-02T12:19:18.404Z,25.20
2017-12-02T12:21:45.988Z,24.55
2017-12-02T12:24:13.538Z,25.92
2017-12-02T12:26:40.978Z,26.80
2017-12-02T12:29:08.434Z,30.25
2017-12-02T12:31:35.870Z,29.10
2017-12-02T12:34:03.364Z,27.77
2017-12-02T12:36:30.835Z,28.00
2017-12-02T12:38:58.380Z,28.77
2017-12-02T12:41:25.825Z,29.63
2017-12-02T12:43:53.294Z,28.50
2017-12-02T12:46:20.726Z,28.90
2017-12-02T12:48:48.157Z,26.35
2017-12-02T12:51:15.671Z,26.23
2017-12-02T12:53:43.113Z,28.58
2017-12-02T12:56:10.567Z,28.50
2017-12-02T12:58:38.030Z,27.67
2017-12-02T13:01:05.474Z,28.65
2017-12-02T13:03:32.921Z,26.93
2017-12-02T13:06:00.405Z,29.40
2017-12-02T13:08:27.845Z,28.40
2017-12-02T13:10:55.315Z,27.97
2017-12-02T13:13:22.775Z,29.70
2017-12-02T13:15:50.229Z,30.70
2017-12-02T13:18:17.662Z,29.37
2017-12-02T13:20:45.254Z,28.30
2017-12-02T13:23:12.705Z,27.45
2017-12-02T13:25:40.164Z,29.12
2017-12-02T13:28:07.617Z,30.25
2017-12-02T13:30:35.076Z,32.72
2017-12-02T13:33:02.654Z,30.20
2017-12-02T13:35:30.858Z,27.90
2017-12-02T13:37:58.355Z,27.87
2017-12-02T13:40:25.810Z,30.05
2017-12-02T13:42:53.329Z,28.55
2017-12-02T13:45:20.773Z,30.60
2017-12-02T13:47:48.230Z,27.98
2017-12-02T13:50:16.422Z,28.85
2017-12-02T13:52:43.861Z,29.80
2017-12-02T13:55:11.291Z,28.45
2017-12-02T13:57:38.905Z,26.48
2017-12-02T14:00:06.326Z,28.17
2017-12-02T14:02:34.557Z,28.73
2017-12-02T14:05:01.970Z,29.20
2017-12-02T14:07:29.420Z,28.60
2017-12-02T14:09:56.855Z,27.90
2017-12-02T14:12:24.294Z,30.12
2017-12-02T14:14:51.734Z,28.12
2017-12-02T14:17:19.183Z,26.77
2017-12-02T14:19:46.724Z,26.42
2017-12-02T14:22:14.194Z,28.50
2017-12-02T14:24:41.630Z,29.45
2017-12-02T14:27:09.076Z,28.38
2017-12-02T14:29:36.519Z,26.15
2017-12-02T14:32:04.722Z,26.17
2017-12-02T14:34:32.173Z,25.45
2017-12-02T14:36:59.628Z,25.08
2017-12-02T14:39:27.082Z,25.55
2017-12-02T14:41:54.543Z,25.70
2017-12-02T14:44:22.011Z,24.87
2017-12-02T14:46:49.565Z,23.30
2017-12-02T14:49:17.027Z,24.20
2017-12-02T14:51:44.462Z,24.27
2017-12-02T14:54:12.030Z,26.85
2017-12-02T14:56:39.514Z,25.92
2017-12-02T14:59:06.946Z,26.65
2017-12-02T15:01:34.386Z,26.30
2017-12-02T15:04:01.854Z,23.87
2017-12-02T15:06:29.300Z,27.30
2017-12-02T15:08:56.735Z,26.67
2017-12-02T15:11:24.246Z,26.20
2017-12-02T15:13:51.809Z,25.30
2017-12-02T15:16:19.255Z,26.23
2017-12-02T15:18:46.722Z,25.20
2017-12-02T15:21:14.186Z,25.70
2017-12-02T15:23:41.639Z,26.35
2017-12-02T15:26:09.176Z,26.48
2017-12-02T15:28:36.606Z,24.27
2017-12-02T15:31:04.818Z,23.62
2017-12-02T15:33:32.278Z,22.83
2017-12-02T15:35:59.722Z,23.70
2017-12-02T15:38:27.189Z,23.53
2017-12-02T15:40:54.638Z,23.97
2017-12-02T15:43:22.193Z,24.60
2017-12-02T15:45:49.867Z,24.92
2017-12-02T15:48:17.433Z,23.65
2017-12-02T15:50:44.971Z,25.10
2017-12-02T15:53:12.416Z,24.25
2017-12-02T15:55:39.851Z,25.45
2017-12-02T15:58:08.078Z,26.55
2017-12-02T16:00:35.518Z,26.10
2017-12-02T16:03:02.982Z,27.13
2017-12-02T16:05:30.426Z,25.42
2017-12-02T16:07:57.875Z,23.62
2017-12-02T16:10:25.365Z,23.10
2017-12-02T16:12:52.806Z,24.65
2017-12-02T16:15:20.334Z,25.67
2017-12-02T16:17:47.910Z,26.83
2017-12-02T16:20:15.350Z,27.13
2017-12-02T16:22:42.829Z,25.15
2017-12-02T16:25:10.252Z,24.63
2017-12-02T16:27:37.792Z,25.15
2017-12-02T16:30:05.998Z,25.93
2017-12-02T16:32:33.474Z,24.92
2017-12-02T16:35:00.951Z,24.83
2017-12-02T16:37:28.389Z,23.80
2017-12-02T16:39:55.835Z,24.87
2017-12-02T16:42:23.250Z,25.37
2017-12-02T16:44:50.771Z,24.80
2017-12-02T16:47:18.202Z,23.70
2017-12-02T16:49:45.702Z,23.08
2017-12-02T16:52:13.162Z,24.52
2017-12-02T16:54:40.606Z,22.80
2017-12-02T16:57:09.541Z,22.87
2017-12-02T16:59:37.000Z,22.87
2017-12-02T17:02:04.599Z,23.17
2017-12-02T17:04:32.068Z,24.25
2017-12-02T17:06:59.740Z,25.07
2017-12-02T17:09:27.188Z,24.17
2017-12-02T17:11:54.816Z,23.65
2017-12-02T17:14:22.238Z,24.63
2017-12-02T17:16:50.595Z,23.12
2017-12-02T17:19:18.138Z,24.17
2017-12-02T17:21:45.580Z,24.17
2017-12-02T17:24:13.038Z,24.80
2017-12-02T17:26:40.481Z,24.23
2017-12-02T17:29:07.964Z,24.87
2017-12-02T17:31:35.415Z,27.10
2017-12-02T17:34:02.947Z,24.00
2017-12-02T17:36:30.421Z,25.20
2017-12-02T17:38:57.888Z,24.37
2017-12-02T17:41:25.317Z,23.50
2017-12-02T17:43:52.767Z,22.55
2017-12-02T17:46:20.246Z,21.15
2017-12-02T17:48:47.790Z,23.45
2017-12-02T17:51:15.246Z,22.92
2017-12-02T17:53:42.689Z,24.00
2017-12-02T17:56:10.143Z,23.23
2017-12-02T17:58:37.587Z,22.15
2017-12-02T18:01:05.086Z,22.00
2017-12-02T18:03:32.636Z,21.80
2017-12-02T18:06:00.150Z,23.03
2017-12-02T18:08:27.677Z,25.83
2017-12-02T18:10:55.153Z,24.42
2017-12-02T18:13:22.724Z,25.37
2017-12-02T18:15:51.109Z,22.98
2017-12-02T18:18:19.348Z,23.65
2017-12-02T18:20:46.894Z,23.02
2017-12-02T18:23:14.355Z,22.23
2017-12-02T18:25:41.780Z,21.10
2017-12-02T18:28:09.230Z,21.80
2017-12-02T18:30:36.710Z,22.37
2017-12-02T18:33:04.156Z,22.13
2017-12-02T18:35:31.592Z,20.43
2017-12-02T18:37:59.889Z,23.25
2017-12-02T18:40:27.367Z,25.40
2017-12-02T18:42:54.817Z,26.73
2017-12-02T18:45:22.250Z,24.15
2017-12-02T18:47:49.736Z,24.40
2017-12-02T18:50:17.178Z,24.25
2017-12-02T18:52:44.679Z,24.75
2017-12-02T18:55:12.207Z,25.17
2017-12-02T18:57:39.633Z,23.17
2017-12-02T19:00:07.074Z,23.20
2017-12-02T19:02:34.682Z,20.08
2017-12-02T19:05:02.189Z,21.48
2017-12-02T19:07:30.495Z,24.60
2017-12-02T19:09:57.929Z,24.02
2017-12-02T19:12:25.386Z,25.52
2017-12-02T19:14:53.243Z,28.30
2017-12-02T19:17:21.464Z,25.57
2017-12-02T19:19:48.914Z,24.73
2017-12-02T19:22:16.481Z,22.90
2017-12-02T19:24:44.146Z,22.52
2017-12-02T19:27:11.685Z,21.10
2017-12-02T19:29:39.140Z,20.85
2017-12-02T19:32:06.722Z,20.58
2017-12-02T19:34:35.894Z,21.17
2017-12-02T19:37:03.387Z,20.33
2017-12-02T19:39:30.834Z,19.23
2017-12-02T19:41:58.295Z,18.70
2017-12-02T19:44:25.746Z,19.83
2017-12-02T19:46:53.216Z,20.90
2017-12-02T19:49:20.758Z,20.30
2017-12-02T19:51:48.203Z,20.77
2017-12-02T19:54:16.042Z,23.12
2017-12-02T19:56:43.490Z,25.08
2017-12-02T19:59:17.818Z,21.25
2017-12-02T20:01:45.278Z,22.25
2017-12-02T20:04:12.805Z,24.05
2017-12-02T20:06:40.238Z,23.23
2017-12-02T20:09:07.685Z,24.85
2017-12-02T20:11:35.146Z,24.12
2017-12-02T20:14:02.679Z,25.85
2017-12-02T20:16:30.102Z,24.95
2017-12-02T20:18:58.435Z,25.23
2017-12-02T20:21:25.998Z,26.87
2017-12-02T20:23:53.448Z,25.75
2017-12-02T20:26:20.910Z,25.27
2017-12-02T20:28:48.467Z,26.75
2017-12-02T20:31:15.925Z,29.17
2017-12-02T20:33:43.380Z,28.23
2017-12-02T20:36:10.810Z,27.83
2017-12-02T20:38:38.403Z,26.58
2017-12-02T20:41:05.855Z,26.40
2017-12-02T20:43:33.424Z,26.27
2017-12-02T20:46:00.863Z,26.67
2017-12-02T20:48:28.318Z,28.58
2017-12-02T20:50:55.896Z,29.05
2017-12-02T20:53:23.361Z,26.42
2017-12-02T20:55:50.816Z,27.05
2017-12-02T20:58:18.302Z,25.95
2017-12-02T21:00:45.809Z,28.52
2017-12-02T21:03:13.242Z,26.45
2017-12-02T21:05:40.738Z,28.80
2017-12-02T21:08:08.261Z,28.87
2017-12-02T21:10:35.741Z,28.27
2017-12-02T21:13:03.200Z,29.85
2017-12-02T21:15:30.646Z,31.20
2017-12-02T21:17:58.217Z,30.15
2017-12-02T21:20:25.658Z,30.12
2017-12-02T21:22:53.152Z,30.75
2017-12-02T21:25:20.672Z,31.45
2017-12-02T21:27:48.110Z,31.12
2017-12-02T21:30:15.555Z,32.60
2017-12-02T21:32:42.997Z,33.03
2017-12-02T21:35:10.506Z,31.15
2017-12-02T21:37:37.939Z,31.70
2017-12-02T21:40:05.388Z,29.40
2017-12-02T21:42:32.857Z,29.10
2017-12-02T21:45:00.304Z,28.40
2017-12-02T21:47:27.782Z,27.83
2017-12-02T21:49:55.234Z,28.80
2017-12-02T21:52:22.714Z,26.30
2017-12-02T21:54:50.987Z,26.12
2017-12-02T21:57:18.410Z,24.23
2017-12-02T21:59:45.843Z,25.15
2017-12-02T22:02:13.290Z,24.25
2017-12-02T22:04:41.507Z,25.80
2017-12-02T22:07:08.948Z,26.58
2017-12-02T22:09:36.403Z,28.77
2017-12-02T22:12:03.877Z,27.00
2017-12-02T22:14:31.322Z,26.70
2017-12-02T22:16:58.778Z,26.30
2017-12-02T22:19:26.222Z,25.12
2017-12-02T22:21:53.670Z,26.08
2017-12-02T22:24:21.112Z,25.52
2017-12-02T22:26:49.340Z,26.37
2017-12-02T22:29:16.791Z,25.33
2017-12-02T22:31:44.239Z,25.20
2017-12-02T22:34:11.679Z,26.17
2017-12-02T22:36:39.163Z,25.20
2017-12-02T22:39:06.607Z,26.08
2017-12-02T22:41:34.087Z,25.88
2017-12-02T22:44:01.543Z,26.17
2017-12-02T22:46:28.983Z,26.85
2017-12-02T22:48:56.444Z,27.52
2017-12-02T22:51:23.895Z,27.20
2017-12-02T22:53:51.340Z,28.40
2017-12-02T22:56:18.806Z,27.42
2017-12-02T22:58:46.262Z,27.17
2017-12-02T23:01:13.726Z,31.45
2017-12-02T23:03:41.175Z,27.70
2017-12-02T23:06:08.654Z,30.10
2017-12-02T23:08:36.109Z,28.95
2017-12-02T23:11:03.542Z,27.93
2017-12-02T23:13:30.991Z,28.70
2017-12-02T23:15:58.494Z,29.30
2017-12-02T23:18:25.870Z,28.23
2017-12-02T23:20:53.377Z,28.80
2017-12-02T23:23:20.845Z,29.55
2017-12-02T23:25:48.290Z,29.73
2017-12-02T23:28:15.776Z,29.50
2017-12-02T23:30:43.218Z,28.62
2017-12-02T23:33:12.199Z,29.05
2017-12-02T23:35:39.682Z,28.25
2017-12-02T23:38:07.924Z,28.42
2017-12-02T23:40:35.390Z,29.55
2017-12-02T23:43:02.846Z,31.87
2017-12-02T23:45:30.282Z,29.85
2017-12-02T23:47:57.726Z,33.05
2017-12-02T23:50:25.174Z,31.73
2017-12-02T23:52:52.674Z,32.45
2017-12-02T23:55:20.975Z,32.08
2017-12-02T23:57:48.389Z,30.75
